Список аэропортов
Фактическая погода:

23 января, 01:00
Температура: -2°C (-8.0*)
Ветер: западный 6 м/с
Давление: *771 мм
разорв. обл.
990 м
Время (МСК)Темп. СВетерВлажностьДавлениеОблачностьОсадки
21:00-2СЗ, 2 м/с78%1031 гПаоблачно
22:00-2З, 2 м/с79%1031 гПас прояснениями
23:00-2З, 2 м/с82%1031 гПас прояснениями
23 января
00:00-3З, 2 м/с84%1031 гПамалооблачно
01:00-4З, 2 м/с85%1031 гПамалооблачно
02:00-4З, 3 м/с85%1031 гПаясно
03:00-4З, 4 м/с84%1031 гПаясно
04:00-3З, 5 м/с81%1031 гПаясно
05:00-2З, 6 м/с81%1031 гПас прояснениями
06:00-2З, 8 м/с77%1031 гПамалооблачно
07:00-2З, 8 м/с76%1031 гПаясно
08:00-2З, 8 м/с76%1032 гПаясно
09:00-2З, 8 м/с74%1032 гПаясно
10:00-1З, 8 м/с71%1032 гПаясно
11:000З, 8 м/с64%1031 гПаясно
12:00+2З, 9 м/с57%1031 гПаясно
13:00+2З, 9 м/с53%1030 гПаясно
14:00+3З, 8 м/с50%1030 гПаясно
15:00+3З, 8 м/с48%1030 гПаясно
16:00+3З, 7 м/с48%1030 гПаясно
17:00+2З, 6 м/с51%1031 гПаясно
18:00+1З, 5 м/с55%1032 гПамалооблачно
19:000З, 5 м/с60%1032 гПамалооблачно
20:00-0З, 4 м/с65%1032 гПаясно
21:00-1З, 4 м/с69%1033 гПаясно
22:00-2З, 3 м/с74%1032 гПаясно
23:00-2З, 3 м/с75%1032 гПаясно
24 января
00:00-2З, 3 м/с74%1032 гПаясно
01:00-3З, 3 м/с75%1032 гПаясно
02:00-3З, 3 м/с78%1032 гПаясно
03:00-4З, 3 м/с82%1031 гПаясно
04:00-4З, 2 м/с81%1031 гПаясно
05:00-5ЮЗ, 2 м/с80%1030 гПаясно
06:00-5ЮЗ, 2 м/с79%1030 гПаясно
07:00-6ЮЗ, 2 м/с80%1030 гПаясно
08:00-6ЮЗ, 2 м/с79%1029 гПаясно
09:00-4ЮЗ, 2 м/с73%1029 гПаясно
10:00-2ЮЗ, 1 м/с68%1028 гПаясно
11:000З, 2 м/с68%1026 гПаясно
12:00+2СЗ, 1 м/с66%1025 гПаясно
13:00+2СВ, 1 м/с63%1024 гПаясно
14:00+3В, 2 м/с62%1023 гПаясно
15:00+3В, 3 м/с62%1022 гПаясно
16:00+2В, 2 м/с66%1022 гПаясно
17:00-0СВ, 1 м/с78%1023 гПаясно
18:00-2С, 1 м/с86%1023 гПаясно
19:00-3З, 2 м/с87%1023 гПаясно
20:00-4З, 1 м/с89%1023 гПаясно
21:00-5Ю, 2 м/с90%1021 гПамалооблачно